Alessandro F — IBVQ — position and weather

sailwx.info

Track history (hours):
 
Tides and Currents Weather Stations Pressure Air Temp Water Temp Dewpoint Dewpoint Depression Visibility Wind Speed Wind Dir Waves Ship Positions

Alessandro F

Last reported at 2015-Aug-01 03:26 UTC. Time now 2015-Aug-01 03:36 UTC.
Position N 43°07' E 010°07'.

Length 100 m; draft 6.4 m.

Type: Tanker. MMSI: 247046400.

Date/timePositionNaut miles runAvg speedWind from/ knotsBaromVisibWave heightAir tempDewpointWater temp
2015-Aug-01 03:26N 43°07' E 010°07'16810.3
2015-Jul-31 11:04N 40°58' E 012°33'510.8
2015-Jul-31 10:33N 40°54' E 012°38'9611.6
2015-Jul-31 02:19N 39°46' E 014°07'912.2
2015-Jul-31 01:32N 39°40' E 014°16'5512.3
2015-Jul-30 21:05N 39°01' E 015°06'712.5
2015-Jul-30 20:31N 38°56' E 015°13'2211.3
2015-Jul-30 18:33N 38°37' E 015°28'1212.5
2015-Jul-30 17:33N 38°26' E 015°36'1211.7
2015-Jul-30 16:33N 38°15' E 015°39'1313.2
2015-Jul-30 15:33N 38°02' E 015°35'1313.3
2015-Jul-30 14:33N 37°49' E 015°31'2713.2
2015-Jul-30 12:30N 37°23' E 015°23'  
2015-Jul-28 04:33N 36°57' E 015°24'2812.5
2015-Jul-28 02:20N 36°34' E 015°04'2413.7
2015-Jul-28 00:33N 36°40' E 014°34'1313.4
2015-Jul-27 23:33N 36°45' E 014°19'1313.2
2015-Jul-27 22:33N 36°51' E 014°04'1413.6
2015-Jul-27 21:33N 36°57' E 013°49'1414.0
2015-Jul-27 20:34N 37°03' E 013°33'1514.3
2015-Jul-27 19:32N 37°09' E 013°16'1414.3
2015-Jul-27 18:33N 37°15' E 013°00'1414.3
2015-Jul-27 17:33N 37°21' E 012°44'1613.9
2015-Jul-27 16:22N 37°29' E 012°26'1113.6
2015-Jul-27 15:32N 37°35' E 012°14'2713.4
2015-Jul-27 13:33N 37°48' E 011°45'5513.5
2015-Jul-27 09:26N 38°08' E 010°39'10213.9
2015-Jul-27 02:08N 38°23' E 008°31'23913.6
2015-Jul-26 08:33N 38°57' E 003°28'1413.8
2015-Jul-26 07:33N 38°59' E 003°10'1413.7
2015-Jul-26 06:32N 39°01' E 002°53'1413.9
2015-Jul-26 05:31N 39°07' E 002°36'1414.1
2015-Jul-26 04:33N 39°12' E 002°20'1613.8
2015-Jul-26 03:25N 39°18' E 002°01'1413.5
2015-Jul-26 02:25N 39°23' E 001°45'65 2.7
2015-Jul-25 02:20N 38°58' E 000°27'1113.0
2015-Jul-25 01:29N 38°48' E 000°28'1313.5
2015-Jul-25 00:30N 38°34' E 000°24'1313.8
2015-Jul-24 23:33N 38°22' E 000°21'1313.6
2015-Jul-24 22:33N 38°08' E 000°18'1313.2
2015-Jul-24 21:33N 37°55' E 000°15'1413.6
2015-Jul-24 20:32N 37°42' E 000°11'1313.3
2015-Jul-24 19:33N 37°29' E 000°08'1313.3
2015-Jul-24 18:33N 37°16' E 000°05'1313.3
2015-Jul-24 17:33N 37°03' E 000°02'1313.4
2015-Jul-24 16:33N 36°50' W 000°02'1413.7
2015-Jul-24 15:32N 36°36' W 000°04'1613.7
2015-Jul-24 14:24N 36°21' W 000°08'1113.5
2015-Jul-24 13:33N 36°09' W 000°10'1413.7
2015-Jul-24 12:33N 35°56' W 000°14'1 0.1
2015-Jul-23 09:28N 35°56' W 000°12'11 3.8
2015-Jul-23 06:32N 36°06' W 000°08'1 0.7
2015-Jul-23 05:08N 36°06' W 000°09'0 0.7
2015-Jul-23 04:33N 36°06' W 000°10'4 0.7
2015-Jul-22 22:19N 36°02' W 000°12'1 0.3
2015-Jul-22 19:33N 36°02' W 000°11'2 1.2
2015-Jul-22 18:12N 36°03' W 000°10'914.0
2015-Jul-22 17:33N 36°10' W 000°03'1813.5
2015-Jul-22 16:13N 36°22' E 000°13'913.3
2015-Jul-22 15:32N 36°28' E 000°22'1313.4
2015-Jul-22 14:33N 36°36' E 000°34'1713.6
2015-Jul-22 13:16N 36°42' E 000°55'1513.4
2015-Jul-22 12:08N 36°47' E 001°13'814.2
2015-Jul-22 11:33N 36°49' E 001°23'1414.1
2015-Jul-22 10:33N 36°54' E 001°40'1414.2
2015-Jul-22 09:33N 36°58' E 001°57'3114.3
2015-Jul-22 07:24N 37°08' E 002°33'1313.8
2015-Jul-22 06:27N 37°12' E 002°48'  
Track history (hours):
 
Tides and Currents Weather Stations Pressure Air Temp Water Temp Dewpoint Dewpoint Depression Visibility Wind Speed Wind Dir Waves Ship Positions

Alessandro F

Last reported at 2015-Aug-01 03:26 UTC. Time now 2015-Aug-01 03:36 UTC.
Position N 43°07' E 010°07'.

Length 100 m; draft 6.4 m.

Type: Tanker. MMSI: 247046400.

Date/timePositionNaut miles runAvg speedWind from/ knotsBaromVisibWave heightAir tempDewpointWater temp
2015-Aug-01 03:26N 43°07' E 010°07'16810.3
2015-Jul-31 11:04N 40°58' E 012°33'510.8
2015-Jul-31 10:33N 40°54' E 012°38'9611.6
2015-Jul-31 02:19N 39°46' E 014°07'912.2
2015-Jul-31 01:32N 39°40' E 014°16'5512.3
2015-Jul-30 21:05N 39°01' E 015°06'712.5
2015-Jul-30 20:31N 38°56' E 015°13'2211.3
2015-Jul-30 18:33N 38°37' E 015°28'1212.5
2015-Jul-30 17:33N 38°26' E 015°36'1211.7
2015-Jul-30 16:33N 38°15' E 015°39'1313.2
2015-Jul-30 15:33N 38°02' E 015°35'1313.3
2015-Jul-30 14:33N 37°49' E 015°31'2713.2
2015-Jul-30 12:30N 37°23' E 015°23'  
2015-Jul-28 04:33N 36°57' E 015°24'2812.5
2015-Jul-28 02:20N 36°34' E 015°04'2413.7
2015-Jul-28 00:33N 36°40' E 014°34'1313.4
2015-Jul-27 23:33N 36°45' E 014°19'1313.2
2015-Jul-27 22:33N 36°51' E 014°04'1413.6
2015-Jul-27 21:33N 36°57' E 013°49'1414.0
2015-Jul-27 20:34N 37°03' E 013°33'1514.3
2015-Jul-27 19:32N 37°09' E 013°16'1414.3
2015-Jul-27 18:33N 37°15' E 013°00'1414.3
2015-Jul-27 17:33N 37°21' E 012°44'1613.9
2015-Jul-27 16:22N 37°29' E 012°26'1113.6
2015-Jul-27 15:32N 37°35' E 012°14'2713.4
2015-Jul-27 13:33N 37°48' E 011°45'5513.5
2015-Jul-27 09:26N 38°08' E 010°39'10213.9
2015-Jul-27 02:08N 38°23' E 008°31'23913.6
2015-Jul-26 08:33N 38°57' E 003°28'1413.8
2015-Jul-26 07:33N 38°59' E 003°10'1413.7
2015-Jul-26 06:32N 39°01' E 002°53'1413.9
2015-Jul-26 05:31N 39°07' E 002°36'1414.1
2015-Jul-26 04:33N 39°12' E 002°20'1613.8
2015-Jul-26 03:25N 39°18' E 002°01'1413.5
2015-Jul-26 02:25N 39°23' E 001°45'65 2.7
2015-Jul-25 02:20N 38°58' E 000°27'1113.0
2015-Jul-25 01:29N 38°48' E 000°28'1313.5
2015-Jul-25 00:30N 38°34' E 000°24'1313.8
2015-Jul-24 23:33N 38°22' E 000°21'1313.6
2015-Jul-24 22:33N 38°08' E 000°18'1313.2
2015-Jul-24 21:33N 37°55' E 000°15'1413.6
2015-Jul-24 20:32N 37°42' E 000°11'1313.3
2015-Jul-24 19:33N 37°29' E 000°08'1313.3
2015-Jul-24 18:33N 37°16' E 000°05'1313.3
2015-Jul-24 17:33N 37°03' E 000°02'1313.4
2015-Jul-24 16:33N 36°50' W 000°02'1413.7
2015-Jul-24 15:32N 36°36' W 000°04'1613.7
2015-Jul-24 14:24N 36°21' W 000°08'1113.5
2015-Jul-24 13:33N 36°09' W 000°10'1413.7
2015-Jul-24 12:33N 35°56' W 000°14'1 0.1
2015-Jul-23 09:28N 35°56' W 000°12'11 3.8
2015-Jul-23 06:32N 36°06' W 000°08'1 0.7
2015-Jul-23 05:08N 36°06' W 000°09'0 0.7
2015-Jul-23 04:33N 36°06' W 000°10'4 0.7
2015-Jul-22 22:19N 36°02' W 000°12'1 0.3
2015-Jul-22 19:33N 36°02' W 000°11'2 1.2
2015-Jul-22 18:12N 36°03' W 000°10'914.0
2015-Jul-22 17:33N 36°10' W 000°03'1813.5
2015-Jul-22 16:13N 36°22' E 000°13'913.3
2015-Jul-22 15:32N 36°28' E 000°22'1313.4
2015-Jul-22 14:33N 36°36' E 000°34'1713.6
2015-Jul-22 13:16N 36°42' E 000°55'1513.4
2015-Jul-22 12:08N 36°47' E 001°13'814.2
2015-Jul-22 11:33N 36°49' E 001°23'1414.1
2015-Jul-22 10:33N 36°54' E 001°40'1414.2
2015-Jul-22 09:33N 36°58' E 001°57'3114.3
2015-Jul-22 07:24N 37°08' E 002°33'1313.8
2015-Jul-22 06:27N 37°12' E 002°48'  

Dump ship's entire track history